createdAt,value
2023-05-16T00:02:14.349Z,8.03
2023-05-16T00:04:42.757Z,7.69
2023-05-16T00:07:10.958Z,7.82
2023-05-16T00:09:38.917Z,7.43
2023-05-16T00:12:08.009Z,7.80
2023-05-16T00:14:36.790Z,7.67
2023-05-16T00:17:12.436Z,7.53
2023-05-16T00:19:42.511Z,7.85
2023-05-16T00:22:11.778Z,7.83
2023-05-16T00:24:40.153Z,7.42
2023-05-16T00:27:08.562Z,7.39
2023-05-16T00:29:36.563Z,7.58
2023-05-16T00:32:05.021Z,7.68
2023-05-16T00:34:33.076Z,8.08
2023-05-16T00:37:01.386Z,7.48
2023-05-16T00:39:29.875Z,7.57
2023-05-16T00:41:58.141Z,7.79
2023-05-16T00:44:26.092Z,7.69
2023-05-16T00:46:55.019Z,7.23
2023-05-16T00:49:23.153Z,7.27
2023-05-16T00:51:52.260Z,7.07
2023-05-16T00:54:27.311Z,7.34
2023-05-16T00:56:59.327Z,6.99
2023-05-16T00:59:28.056Z,6.78
2023-05-16T01:01:56.858Z,6.65
2023-05-16T01:04:25.499Z,6.58
2023-05-16T01:06:57.300Z,6.37
2023-05-16T01:09:25.430Z,5.82
2023-05-16T06:30:45.255Z,27.49
2023-05-16T06:33:14.911Z,27.49
2023-05-16T06:35:43.022Z,27.42
2023-05-16T06:38:11.173Z,27.53
2023-05-16T06:40:39.502Z,27.75
2023-05-16T06:43:07.669Z,27.81
2023-05-16T06:45:35.987Z,27.32
2023-05-16T06:48:05.580Z,27.83
2023-05-16T06:50:33.778Z,27.51
2023-05-16T06:53:02.558Z,28.14
2023-05-16T06:55:31.101Z,28.60
2023-05-16T06:57:59.257Z,28.92
2023-05-16T07:00:27.660Z,28.93
2023-05-16T07:02:56.329Z,29.26
2023-05-16T07:05:24.513Z,29.68
2023-05-16T07:07:52.595Z,29.22
2023-05-16T07:10:21.619Z,29.57
2023-05-16T07:12:49.669Z,29.01
2023-05-16T07:15:17.678Z,29.45
2023-05-16T07:17:46.350Z,29.55
2023-05-16T07:20:15.170Z,30.03
2023-05-16T07:22:43.181Z,29.69
2023-05-16T07:25:13.162Z,29.35
2023-05-16T07:27:42.131Z,30.64
2023-05-16T07:30:11.378Z,30.94
2023-05-16T07:32:40.620Z,30.30
2023-05-16T07:35:09.902Z,30.66
2023-05-16T07:37:38.271Z,29.65
2023-05-16T07:40:07.436Z,30.79
2023-05-16T07:42:35.466Z,29.74
2023-05-16T07:45:03.404Z,30.05
2023-05-16T07:47:34.168Z,29.71
2023-05-16T07:50:02.554Z,31.03
2023-05-16T07:52:33.091Z,29.27
2023-05-16T07:55:01.557Z,31.61
2023-05-16T07:57:31.900Z,31.89
2023-05-16T08:00:00.013Z,30.79
2023-05-16T08:02:31.481Z,31.03
2023-05-16T08:05:00.090Z,31.73
2023-05-16T08:07:28.145Z,32.52
2023-05-16T08:09:56.261Z,32.46
2023-05-16T08:12:24.990Z,31.20
2023-05-16T08:14:52.912Z,26.22
2023-05-16T08:17:20.840Z,29.57
2023-05-16T08:19:49.161Z,30.14
2023-05-16T08:22:17.211Z,29.47
2023-05-16T08:24:45.084Z,30.92
2023-05-16T08:27:13.431Z,30.23
2023-05-16T08:29:42.307Z,30.06
2023-05-16T08:32:11.553Z,32.14
2023-05-16T08:34:39.915Z,33.17
2023-05-16T08:37:07.983Z,33.16
2023-05-16T08:39:36.170Z,32.45
2023-05-16T08:42:05.683Z,31.81
2023-05-16T08:44:35.428Z,31.47
2023-05-16T08:47:13.510Z,32.19
2023-05-16T08:49:42.696Z,32.63
2023-05-16T08:52:11.661Z,33.13
2023-05-16T08:54:41.545Z,31.73
2023-05-16T08:57:10.616Z,32.23
2023-05-16T08:59:38.775Z,33.09
2023-05-16T09:02:07.180Z,32.14
2023-05-16T09:04:37.553Z,32.40
2023-05-16T09:07:06.341Z,32.70
2023-05-16T09:09:34.313Z,32.48
2023-05-16T09:12:02.763Z,33.82
2023-05-16T09:14:31.301Z,33.33
2023-05-16T09:17:12.366Z,31.79
2023-05-16T09:19:42.849Z,31.87
2023-05-16T09:22:14.068Z,29.70
2023-05-16T09:24:43.974Z,31.60
2023-05-16T09:27:13.596Z,33.55
2023-05-16T09:29:43.201Z,33.11
2023-05-16T09:32:25.140Z,31.84
2023-05-16T09:35:05.660Z,33.08
2023-05-16T09:37:34.111Z,32.90
2023-05-16T09:40:02.057Z,32.06
2023-05-16T09:42:32.826Z,29.75
2023-05-16T09:45:04.358Z,31.05
2023-05-16T09:47:33.196Z,34.21
2023-05-16T09:50:01.566Z,31.71
2023-05-16T09:52:31.667Z,29.67
2023-05-16T09:54:59.568Z,31.40
2023-05-16T09:57:31.121Z,31.04
2023-05-16T10:00:02.305Z,31.88
2023-05-16T10:02:33.953Z,32.35
2023-05-16T10:05:05.249Z,31.75
2023-05-16T10:07:35.928Z,32.61
2023-05-16T10:10:09.427Z,33.98
2023-05-16T10:12:38.879Z,32.65
2023-05-16T10:15:20.164Z,31.32
2023-05-16T10:17:55.181Z,31.77
2023-05-16T10:20:24.407Z,32.67
2023-05-16T10:22:55.971Z,32.20
2023-05-16T10:26:01.657Z,32.66
2023-05-16T10:28:30.583Z,32.27
2023-05-16T10:31:01.738Z,31.65
2023-05-16T10:33:56.999Z,30.30
2023-05-16T10:36:25.987Z,27.40
2023-05-16T10:38:54.860Z,31.11
2023-05-16T10:41:35.468Z,31.12
2023-05-16T10:44:05.342Z,33.51
2023-05-16T10:46:33.608Z,30.22
2023-05-16T10:49:20.635Z,30.43
2023-05-16T10:52:11.336Z,29.66
2023-05-16T10:54:44.477Z,32.67
2023-05-16T10:57:18.115Z,31.71
2023-05-16T10:59:47.920Z,29.50
2023-05-16T11:02:35.119Z,29.19
2023-05-16T11:05:03.509Z,30.41
2023-05-16T11:07:37.266Z,26.52
2023-05-16T11:10:16.282Z,25.85
2023-05-16T11:12:51.126Z,27.80
2023-05-16T11:15:28.811Z,29.47
2023-05-16T11:18:09.111Z,27.00
2023-05-16T11:20:39.034Z,27.14
2023-05-16T11:23:22.480Z,27.64
2023-05-16T11:25:56.412Z,28.23
2023-05-16T11:28:27.279Z,30.25
2023-05-16T11:30:58.406Z,28.87
2023-05-16T11:33:28.074Z,28.05
2023-05-16T11:36:15.798Z,26.21
2023-05-16T11:38:44.772Z,25.29
2023-05-16T11:41:13.256Z,25.88
2023-05-16T11:43:42.987Z,26.63
2023-05-16T11:46:16.691Z,26.40
2023-05-16T11:48:46.725Z,27.45
2023-05-16T11:51:19.258Z,26.12
2023-05-16T11:53:50.830Z,26.11
2023-05-16T11:56:21.999Z,26.57
2023-05-16T11:58:51.219Z,27.36
2023-05-16T12:01:19.652Z,25.27
2023-05-16T12:03:57.289Z,24.42
2023-05-16T12:06:26.887Z,25.88
2023-05-16T12:08:55.590Z,24.84
2023-05-16T12:11:26.788Z,24.72
2023-05-16T12:13:55.338Z,25.26
2023-05-16T12:16:24.187Z,26.54
2023-05-16T12:18:52.301Z,27.07
2023-05-16T12:21:20.906Z,27.68
2023-05-16T12:23:48.843Z,28.00
2023-05-16T12:26:26.049Z,28.17
2023-05-16T12:28:57.604Z,28.52
2023-05-16T12:31:31.613Z,29.06
2023-05-16T12:34:00.840Z,28.60
2023-05-16T12:36:33.839Z,29.23
2023-05-16T12:39:08.161Z,28.31
2023-05-16T12:41:42.954Z,28.98
2023-05-16T12:44:18.094Z,30.38
2023-05-16T12:46:49.007Z,31.07
2023-05-16T12:49:21.359Z,31.01
2023-05-16T12:51:54.580Z,31.12
2023-05-16T12:54:23.398Z,31.56
2023-05-16T12:56:51.519Z,31.92
2023-05-16T12:59:20.650Z,32.02
2023-05-16T13:01:49.084Z,32.20
2023-05-16T13:04:20.272Z,33.37
2023-05-16T13:06:59.149Z,33.42
2023-05-16T13:09:32.092Z,33.33
2023-05-16T13:14:46.885Z,33.63
2023-05-16T13:17:15.145Z,32.80
2023-05-16T13:19:43.051Z,32.75
2023-05-16T13:22:11.128Z,32.72
2023-05-16T13:24:39.456Z,32.98
2023-05-16T13:27:07.531Z,32.94
2023-05-16T13:29:35.521Z,32.81
2023-05-16T13:32:04.085Z,32.87
2023-05-16T13:34:32.656Z,32.69
2023-05-16T13:37:01.028Z,30.82
2023-05-16T13:39:29.282Z,27.78
2023-05-16T13:41:57.271Z,26.15
2023-05-16T13:44:25.300Z,24.79
2023-05-16T13:46:58.257Z,23.88
2023-05-16T13:49:26.655Z,23.33
2023-05-16T13:51:55.028Z,23.21
2023-05-16T13:54:23.206Z,23.94
2023-05-16T13:56:51.598Z,23.73
2023-05-16T13:59:28.445Z,22.76
2023-05-16T14:02:06.291Z,24.97
2023-05-16T14:04:34.737Z,27.19
2023-05-16T14:07:02.845Z,29.03
2023-05-16T14:09:31.115Z,30.44
2023-05-16T14:11:59.525Z,31.02
2023-05-16T14:14:27.668Z,31.28
2023-05-16T14:16:55.855Z,32.11
2023-05-16T14:19:24.253Z,32.61
2023-05-16T14:21:52.352Z,32.66
2023-05-16T14:24:20.438Z,32.11
2023-05-16T14:26:48.761Z,31.39
2023-05-16T14:29:16.650Z,31.25
2023-05-16T14:31:44.610Z,31.12
2023-05-16T14:34:13.036Z,30.89
2023-05-16T14:36:41.018Z,31.02
2023-05-16T14:39:09.820Z,31.05
2023-05-16T14:41:38.076Z,30.69
2023-05-16T14:44:06.328Z,31.05
2023-05-16T14:46:34.542Z,31.46
2023-05-16T14:49:03.019Z,31.41
2023-05-16T14:51:32.142Z,31.79
2023-05-16T14:54:00.166Z,31.58
2023-05-16T14:56:28.511Z,31.81
2023-05-16T14:58:56.422Z,32.11
2023-05-16T15:01:24.454Z,31.80
2023-05-16T15:03:55.835Z,31.86
2023-05-16T15:06:25.190Z,31.82
2023-05-16T15:08:54.438Z,31.77
2023-05-16T15:11:22.482Z,31.78
2023-05-16T15:13:50.577Z,31.18
2023-05-16T15:16:19.027Z,30.66
2023-05-16T15:18:48.772Z,30.48
2023-05-16T15:21:16.855Z,30.58
2023-05-16T15:23:45.573Z,31.12
2023-05-16T15:26:13.678Z,31.29
2023-05-16T15:28:41.829Z,31.29
2023-05-16T15:31:10.807Z,31.25
2023-05-16T15:33:38.833Z,30.95
2023-05-16T15:36:07.307Z,30.90
2023-05-16T15:38:36.732Z,30.21
2023-05-16T15:43:42.883Z,30.49
2023-05-16T15:46:11.777Z,30.28
2023-05-16T15:48:45.061Z,30.19
2023-05-16T15:51:14.246Z,29.72
2023-05-16T15:53:42.420Z,29.31
2023-05-16T15:56:10.534Z,29.31
2023-05-16T15:58:39.049Z,29.33
2023-05-16T16:01:06.971Z,29.45
2023-05-16T16:03:35.565Z,29.34
2023-05-16T16:06:03.886Z,28.85
2023-05-16T16:08:31.945Z,28.23
2023-05-16T16:11:00.218Z,28.13
2023-05-16T16:13:28.115Z,28.11
2023-05-16T16:15:56.137Z,27.95
2023-05-16T16:18:24.572Z,27.84
2023-05-16T16:20:54.157Z,27.76
2023-05-16T16:23:22.164Z,27.80
2023-05-16T16:25:50.666Z,27.05
2023-05-16T16:28:19.629Z,26.70
2023-05-16T16:30:50.677Z,26.22
2023-05-16T16:33:19.158Z,26.08
2023-05-16T16:35:47.187Z,25.32
2023-05-16T16:38:15.451Z,24.01
2023-05-16T16:40:44.353Z,22.65
2023-05-16T16:43:12.515Z,21.82
2023-05-16T16:45:40.561Z,21.31
2023-05-16T16:48:12.132Z,21.05
2023-05-16T16:50:40.467Z,20.81
2023-05-16T16:53:08.968Z,20.40
2023-05-16T16:55:40.628Z,20.10
2023-05-16T16:58:09.163Z,20.12
2023-05-16T17:00:37.353Z,19.99
2023-05-16T17:03:05.797Z,20.43
2023-05-16T17:05:34.405Z,20.55
2023-05-16T17:08:02.718Z,19.88
2023-05-16T17:10:31.154Z,19.45
2023-05-16T17:13:06.282Z,19.38
2023-05-16T17:15:34.708Z,19.41
2023-05-16T17:18:03.956Z,19.18
2023-05-16T17:20:32.128Z,19.02
2023-05-16T17:23:00.780Z,18.65
2023-05-16T17:25:41.524Z,18.59
2023-05-16T17:28:21.900Z,18.05
2023-05-16T17:30:50.510Z,17.93
2023-05-16T17:33:19.909Z,17.62
2023-05-16T17:35:48.529Z,17.43
2023-05-16T17:38:17.093Z,17.59
2023-05-16T17:40:45.178Z,17.71
2023-05-16T17:43:13.580Z,17.64
2023-05-16T17:45:41.914Z,17.65
2023-05-16T17:48:10.418Z,17.32
2023-05-16T17:50:38.795Z,16.91
2023-05-16T17:53:09.402Z,16.44
2023-05-16T17:55:38.426Z,15.84
2023-05-16T17:58:07.349Z,16.17
2023-05-16T18:00:36.161Z,16.27
2023-05-16T18:03:05.523Z,16.20
2023-05-16T18:05:33.607Z,16.15
2023-05-16T18:08:01.858Z,16.17
2023-05-16T18:10:43.403Z,16.38
2023-05-16T18:13:19.154Z,16.69
2023-05-16T18:15:47.644Z,16.75
2023-05-16T18:18:15.863Z,16.94
2023-05-16T18:20:44.302Z,16.64
2023-05-16T18:23:12.760Z,16.41
2023-05-16T18:25:40.783Z,16.50
2023-05-16T18:28:08.738Z,16.30
2023-05-16T18:30:38.111Z,16.04
2023-05-16T18:33:06.955Z,15.83
2023-05-16T18:35:35.116Z,15.35
2023-05-16T18:38:04.212Z,15.34
2023-05-16T18:40:48.316Z,15.41
2023-05-16T18:43:19.905Z,15.51
2023-05-16T18:45:48.161Z,15.73
2023-05-16T18:48:16.861Z,15.88
2023-05-16T18:50:44.817Z,15.89
2023-05-16T18:53:12.730Z,15.96
2023-05-16T18:55:41.054Z,15.93
2023-05-16T18:58:09.113Z,15.54
2023-05-16T19:00:49.477Z,14.94
2023-05-16T19:03:18.135Z,14.04
2023-05-16T19:05:46.682Z,12.71
2023-05-16T19:08:15.001Z,13.35
2023-05-16T19:10:43.698Z,14.06
2023-05-16T19:13:11.780Z,14.59
2023-05-16T19:15:40.057Z,14.90
2023-05-16T19:18:20.886Z,15.11
2023-05-16T19:20:49.176Z,15.06
2023-05-16T19:23:17.663Z,14.92
2023-05-16T19:25:49.592Z,14.91
2023-05-16T19:28:30.317Z,14.80
2023-05-16T19:30:58.674Z,14.75
2023-05-16T19:33:27.268Z,14.43
2023-05-16T19:35:58.952Z,14.05
2023-05-16T19:38:27.382Z,13.61
2023-05-16T19:40:55.499Z,12.97
2023-05-16T19:43:24.277Z,12.64
2023-05-16T19:45:53.010Z,13.23
2023-05-16T19:48:33.493Z,13.69
2023-05-16T19:51:02.430Z,14.14
2023-05-16T19:53:43.229Z,14.30
2023-05-16T19:56:11.799Z,14.31
2023-05-16T19:58:39.906Z,14.37
2023-05-16T20:01:23.122Z,14.20
2023-05-16T20:03:51.835Z,14.10
2023-05-16T20:06:33.120Z,13.85
2023-05-16T20:09:01.838Z,13.96
2023-05-16T20:11:29.950Z,13.91
2023-05-16T20:14:00.536Z,13.73
2023-05-16T20:16:29.163Z,13.69
2023-05-16T20:18:57.364Z,13.76
2023-05-16T20:21:25.479Z,13.77
2023-05-16T20:23:54.617Z,13.57
2023-05-16T20:26:23.491Z,13.27
2023-05-16T20:28:51.564Z,12.93
2023-05-16T20:31:20.263Z,12.93
2023-05-16T20:34:00.875Z,13.06
2023-05-16T20:36:29.639Z,12.93
2023-05-16T20:38:57.615Z,12.89
2023-05-16T20:41:37.334Z,12.38
2023-05-16T20:44:17.708Z,12.13
2023-05-16T20:46:46.012Z,11.07
2023-05-16T20:49:14.377Z,10.87
2023-05-16T20:51:42.720Z,11.03
2023-05-16T20:54:11.299Z,11.40
2023-05-16T20:56:39.541Z,11.57
2023-05-16T20:59:07.936Z,11.83
2023-05-16T21:01:36.027Z,11.90
2023-05-16T21:04:04.210Z,11.93
2023-05-16T21:06:32.569Z,11.71
2023-05-16T21:09:00.751Z,11.62
2023-05-16T21:11:28.922Z,11.57
2023-05-16T21:13:57.177Z,11.37
2023-05-16T21:16:25.372Z,11.27
2023-05-16T21:18:53.654Z,11.22
2023-05-16T21:21:22.264Z,11.00
2023-05-16T21:23:50.384Z,11.17
2023-05-16T21:26:18.812Z,11.14
2023-05-16T21:31:19.272Z,10.67
2023-05-16T21:33:47.718Z,10.50
2023-05-16T21:36:15.787Z,10.36
2023-05-16T21:38:43.872Z,10.23
2023-05-16T21:41:12.278Z,10.06
2023-05-16T21:43:40.519Z,10.09
2023-05-16T21:46:08.486Z,9.85
2023-05-16T21:48:37.018Z,9.58
2023-05-16T21:51:07.439Z,9.34
2023-05-16T21:53:35.533Z,9.29
2023-05-16T21:56:04.156Z,9.33
2023-05-16T21:58:32.196Z,8.97
2023-05-16T22:01:00.284Z,8.94
2023-05-16T22:03:28.833Z,8.78
2023-05-16T22:05:58.465Z,8.77
2023-05-16T22:08:26.414Z,8.97
2023-05-16T22:10:54.807Z,9.09
2023-05-16T22:13:22.844Z,9.29
2023-05-16T22:16:03.250Z,9.19
2023-05-16T22:18:34.134Z,9.28
2023-05-16T22:21:04.673Z,9.25
2023-05-16T22:23:32.901Z,9.16
2023-05-16T22:26:00.921Z,9.00
2023-05-16T22:28:29.057Z,9.01
2023-05-16T22:30:57.342Z,9.05
2023-05-16T22:33:25.892Z,8.82
2023-05-16T22:35:54.360Z,8.69
2023-05-16T22:38:22.846Z,8.75
2023-05-16T22:40:50.835Z,8.76
2023-05-16T22:43:18.762Z,9.03
2023-05-16T22:45:47.325Z,8.80
2023-05-16T22:48:15.371Z,8.65
2023-05-16T22:50:43.405Z,8.70
2023-05-16T22:53:11.828Z,8.72
2023-05-16T22:55:39.811Z,8.55
2023-05-16T22:58:07.847Z,8.45
2023-05-16T23:00:36.378Z,8.97
2023-05-16T23:03:04.727Z,9.54
2023-05-16T23:05:32.832Z,9.65
2023-05-16T23:08:01.211Z,9.44
2023-05-16T23:10:29.398Z,9.12
2023-05-16T23:12:57.559Z,9.05
2023-05-16T23:15:26.355Z,8.97
2023-05-16T23:17:54.570Z,8.47
2023-05-16T23:20:22.889Z,8.29
2023-05-16T23:22:51.284Z,8.40
2023-05-16T23:25:19.694Z,8.40
2023-05-16T23:27:49.009Z,8.46
2023-05-16T23:30:17.459Z,8.56
2023-05-16T23:32:45.518Z,8.51
2023-05-16T23:35:13.574Z,8.81
2023-05-16T23:37:42.024Z,8.75
2023-05-16T23:40:10.336Z,8.28
2023-05-16T23:42:39.644Z,8.63
2023-05-16T23:45:08.955Z,8.45
2023-05-16T23:47:37.107Z,8.33
2023-05-16T23:50:06.282Z,8.82
2023-05-16T23:52:34.733Z,8.81
2023-05-16T23:55:02.870Z,8.56
2023-05-16T23:57:33.135Z,8.61
